Terminal Aerodrome Forecast
Issued by NWS

Home | Current Version | Previous Version | Text Only | Print | Product List | Glossary On
Versions: 1 2 3 4 5 6 7 8 9 10 11 12 13 14 15 16 17 18 19 20
000
FTUS43 KDTX 202300
TAFMBS
TAF
KMBS 202337Z 2100/2124 24008KT P6SM SCT100
     FM210800 27003KT 3SM BR SKC
     FM211000 VRB03KT 1SM BR SCT007
     FM211200 30005KT 3SM BR SCT015
     FM211400 30005KT P6SM BKN035
     FM211900 04007KT P6SM SCT045=

USA.gov is the U.S. government's official web portal to all federal, state and local government web resources and services.